createdAt,value
2019-02-14T00:03:59.371Z,10.32
2019-02-14T00:09:01.476Z,10.25
2019-02-14T00:14:03.532Z,10.14
2019-02-14T00:19:05.608Z,10.07
2019-02-14T00:24:07.756Z,10.04
2019-02-14T00:29:09.868Z,9.95
2019-02-14T00:34:12.022Z,9.84
2019-02-14T00:39:14.099Z,9.78
2019-02-14T00:44:16.153Z,9.74
2019-02-14T00:49:18.297Z,9.67
2019-02-14T00:54:20.329Z,9.59
2019-02-14T00:59:22.404Z,9.55
2019-02-14T01:04:24.461Z,9.46
2019-02-14T01:09:27.865Z,9.37
2019-02-14T01:14:30.093Z,9.29
2019-02-14T01:19:32.154Z,9.33
2019-02-14T01:24:34.248Z,9.22
2019-02-14T01:29:36.292Z,9.21
2019-02-14T01:34:38.422Z,9.27
2019-02-14T01:39:40.612Z,9.23
2019-02-14T01:44:42.678Z,9.21
2019-02-14T01:49:44.842Z,9.18
2019-02-14T01:54:49.076Z,9.15
2019-02-14T01:59:51.188Z,9.12
2019-02-14T02:04:53.304Z,9.04
2019-02-14T02:09:55.420Z,9.06
2019-02-14T02:14:57.483Z,9.06
2019-02-14T02:19:59.550Z,9.02
2019-02-14T02:25:02.069Z,8.98
2019-02-14T02:30:19.186Z,8.97
2019-02-14T02:35:21.250Z,8.96
2019-02-14T02:40:23.423Z,8.87
2019-02-14T02:45:25.563Z,8.66
2019-02-14T02:50:27.617Z,8.59
2019-02-14T02:55:29.723Z,8.53
2019-02-14T03:00:31.812Z,8.64
2019-02-14T03:05:33.901Z,8.60
2019-02-14T03:10:35.997Z,8.67
2019-02-14T03:15:38.138Z,8.71
2019-02-14T03:20:40.222Z,8.68
2019-02-14T03:25:42.317Z,8.57
2019-02-14T03:30:44.330Z,8.42
2019-02-14T03:35:46.379Z,8.52
2019-02-14T03:40:48.469Z,8.50
2019-02-14T03:45:50.527Z,8.52
2019-02-14T03:50:52.703Z,8.55
2019-02-14T03:55:54.801Z,8.56
2019-02-14T04:00:58.337Z,8.55
2019-02-14T04:06:01.634Z,8.53
2019-02-14T04:11:03.752Z,8.32
2019-02-14T04:16:05.817Z,8.41
2019-02-14T04:21:07.932Z,8.40
2019-02-14T04:26:10.023Z,8.44
2019-02-14T04:31:12.065Z,8.44
2019-02-14T04:36:14.160Z,8.40
2019-02-14T04:41:16.216Z,8.37
2019-02-14T04:46:18.306Z,8.37
2019-02-14T04:51:22.196Z,8.37
2019-02-14T04:56:24.226Z,8.34
2019-02-14T05:01:26.290Z,8.35
2019-02-14T05:06:28.238Z,8.33
2019-02-14T05:11:30.369Z,8.26
2019-02-14T05:16:32.437Z,8.11
2019-02-14T05:21:34.474Z,8.27
2019-02-14T05:26:36.634Z,8.30
2019-02-14T05:31:38.733Z,8.32
2019-02-14T05:36:40.774Z,8.28
2019-02-14T05:41:42.881Z,8.23
2019-02-14T05:46:44.980Z,8.07
2019-02-14T05:51:47.097Z,8.05
2019-02-14T05:57:08.782Z,8.02
2019-02-14T06:02:10.884Z,7.99
2019-02-14T06:07:12.977Z,7.86
2019-02-14T06:12:15.026Z,7.95
2019-02-14T06:17:17.133Z,7.90
2019-02-14T06:22:19.207Z,7.89
2019-02-14T06:27:21.284Z,7.87
2019-02-14T06:32:23.363Z,7.87
2019-02-14T06:37:25.479Z,7.58
2019-02-14T06:42:27.553Z,7.63
2019-02-14T06:47:29.610Z,7.83
2019-02-14T06:52:33.488Z,7.87
2019-02-14T06:57:35.558Z,7.84
2019-02-14T07:02:40.509Z,7.83
2019-02-14T07:07:42.603Z,7.93
2019-02-14T07:12:44.665Z,7.90
2019-02-14T07:17:46.758Z,7.74
2019-02-14T07:22:48.843Z,7.68
2019-02-14T07:27:51.040Z,7.82
2019-02-14T07:32:53.113Z,7.81
2019-02-14T07:37:55.290Z,7.91
2019-02-14T07:42:57.389Z,8.01
2019-02-14T07:47:59.470Z,8.12
2019-02-14T07:53:23.890Z,8.17
2019-02-14T07:58:28.077Z,8.26
2019-02-14T08:03:32.091Z,8.46
2019-02-14T08:08:34.325Z,8.50
2019-02-14T08:13:36.518Z,8.70
2019-02-14T08:18:38.741Z,8.79
2019-02-14T08:23:40.895Z,9.00
2019-02-14T08:28:42.949Z,9.19
2019-02-14T08:33:45.140Z,9.32
2019-02-14T08:38:47.288Z,9.42
2019-02-14T08:43:49.370Z,9.44
2019-02-14T08:48:51.418Z,9.56
2019-02-14T08:53:55.393Z,9.54
2019-02-14T08:58:57.565Z,9.64
2019-02-14T09:03:59.644Z,9.68
2019-02-14T09:09:01.785Z,9.74
2019-02-14T09:14:03.909Z,9.81
2019-02-14T09:19:05.996Z,9.78
2019-02-14T09:24:08.038Z,9.70
2019-02-14T09:29:12.713Z,9.58
2019-02-14T09:34:14.229Z,9.60
2019-02-14T09:39:16.635Z,9.70
2019-02-14T09:44:18.719Z,9.91
2019-02-14T09:49:20.822Z,9.94
2019-02-14T09:54:22.933Z,10.15
2019-02-14T09:59:25.033Z,10.15
2019-02-14T10:04:27.149Z,10.17
2019-02-14T10:09:29.245Z,10.26
2019-02-14T10:14:31.289Z,10.65
2019-02-14T10:19:33.430Z,10.84
2019-02-14T10:24:35.518Z,11.19
2019-02-14T10:29:37.556Z,11.49
2019-02-14T10:34:39.697Z,11.71
2019-02-14T10:39:41.753Z,11.67
2019-02-14T10:44:44.038Z,11.88
2019-02-14T10:49:46.194Z,12.12
2019-02-14T10:54:49.130Z,12.19
2019-02-14T10:59:51.193Z,12.28
2019-02-14T11:04:53.265Z,12.43
2019-02-14T11:09:57.224Z,12.46
2019-02-14T11:14:59.412Z,12.65
2019-02-14T11:20:01.537Z,12.62
2019-02-14T11:25:03.996Z,12.66
2019-02-14T11:30:07.460Z,12.88
2019-02-14T11:35:09.546Z,12.87
2019-02-14T11:40:12.012Z,13.00
2019-02-14T11:45:15.255Z,13.18
2019-02-14T11:50:17.325Z,13.36
2019-02-14T11:55:19.366Z,13.58
2019-02-14T12:00:22.493Z,13.66
2019-02-14T12:05:26.181Z,13.77
2019-02-14T12:10:28.365Z,13.75
2019-02-14T12:15:30.480Z,13.80
2019-02-14T12:20:32.630Z,13.82
2019-02-14T12:25:36.510Z,13.77
2019-02-14T12:30:38.584Z,13.97
2019-02-14T12:35:40.684Z,14.11
2019-02-14T12:40:43.060Z,13.89
2019-02-14T12:45:45.153Z,13.86
2019-02-14T12:50:47.422Z,13.98
2019-02-14T12:55:50.092Z,13.92
2019-02-14T13:00:52.259Z,13.98
2019-02-14T13:05:54.407Z,13.90
2019-02-14T13:10:56.563Z,13.94
2019-02-14T13:15:58.633Z,14.04
2019-02-14T13:21:00.682Z,13.99
2019-02-14T13:26:02.784Z,13.93
2019-02-14T13:31:06.749Z,14.02
2019-02-14T13:36:08.771Z,14.00
2019-02-14T13:41:10.881Z,14.03
2019-02-14T13:46:13.036Z,13.96
2019-02-14T13:51:15.136Z,13.94
2019-02-14T13:56:17.253Z,13.79
2019-02-14T14:01:19.347Z,13.87
2019-02-14T14:06:21.436Z,13.95
2019-02-14T14:11:23.561Z,13.81
2019-02-14T14:16:25.679Z,13.76
2019-02-14T14:21:29.640Z,13.82
2019-02-14T14:26:31.779Z,13.77
2019-02-14T14:31:33.864Z,13.73
2019-02-14T14:36:35.956Z,13.68
2019-02-14T14:41:38.028Z,13.66
2019-02-14T14:46:47.249Z,13.69
2019-02-14T14:51:49.322Z,13.65
2019-02-14T14:56:51.392Z,13.55
2019-02-14T15:01:53.449Z,13.57
2019-02-14T15:06:55.507Z,13.57
2019-02-14T15:11:57.707Z,13.52
2019-02-14T15:16:59.767Z,13.50
2019-02-14T15:22:01.879Z,13.37
2019-02-14T15:27:03.942Z,13.31
2019-02-14T15:32:06.036Z,13.36
2019-02-14T15:37:08.128Z,13.32
2019-02-14T15:42:10.203Z,13.26
2019-02-14T15:47:12.309Z,13.22
2019-02-14T15:52:14.391Z,13.13
2019-02-14T15:57:18.211Z,12.93
2019-02-14T16:02:20.359Z,12.77
2019-02-14T16:07:24.823Z,12.73
2019-02-14T16:12:26.950Z,12.79
2019-02-14T16:17:29.063Z,12.60
2019-02-14T16:22:31.106Z,12.57
2019-02-14T16:27:33.245Z,12.54
2019-02-14T16:32:35.398Z,12.41
2019-02-14T16:37:37.639Z,12.38
2019-02-14T16:42:39.762Z,12.30
2019-02-14T16:47:41.860Z,12.24
2019-02-14T16:52:43.920Z,12.20
2019-02-14T16:57:46.143Z,12.14
2019-02-14T17:02:50.198Z,12.08
2019-02-14T17:07:52.258Z,11.99
2019-02-14T17:12:54.363Z,11.92
2019-02-14T17:18:05.295Z,11.84
2019-02-14T17:23:03.779Z,11.73
2019-02-14T17:28:05.857Z,11.63
2019-02-14T17:33:07.967Z,11.54
2019-02-14T17:38:10.107Z,11.45
2019-02-14T17:43:12.188Z,11.35
2019-02-14T17:48:14.250Z,11.36
2019-02-14T17:53:16.375Z,11.31
2019-02-14T17:58:18.410Z,11.25
2019-02-14T18:03:20.508Z,11.19
2019-02-14T18:08:22.565Z,11.11
2019-02-14T18:13:24.762Z,11.05
2019-02-14T18:18:26.818Z,10.98
2019-02-14T18:23:28.931Z,10.92
2019-02-14T18:28:30.973Z,10.85
2019-02-14T18:33:33.046Z,10.79
2019-02-14T18:38:35.129Z,10.70
2019-02-14T18:43:37.272Z,10.62
2019-02-14T18:48:39.434Z,10.56
2019-02-14T18:53:41.518Z,10.48
2019-02-14T18:58:43.566Z,10.44
2019-02-14T19:03:45.727Z,10.39
2019-02-14T19:08:50.224Z,10.33
2019-02-14T19:13:52.317Z,10.27
2019-02-14T19:18:54.349Z,10.19
2019-02-14T19:23:56.451Z,10.16
2019-02-14T19:28:58.564Z,10.13
2019-02-14T19:34:00.641Z,10.07
2019-02-14T19:39:04.332Z,10.01
2019-02-14T19:44:06.534Z,9.95
2019-02-14T19:49:08.602Z,9.87
2019-02-14T19:54:10.715Z,9.79
2019-02-14T19:59:12.843Z,9.72
2019-02-14T20:04:14.941Z,9.68
2019-02-14T20:09:17.052Z,9.65
2019-02-14T20:14:19.190Z,9.61
2019-02-14T20:19:21.274Z,9.57
2019-02-14T20:24:23.419Z,9.49
2019-02-14T20:29:25.493Z,9.43
2019-02-14T20:34:27.549Z,9.33
2019-02-14T20:39:29.652Z,9.27
2019-02-14T20:44:31.727Z,9.21
2019-02-14T20:49:33.816Z,9.21
2019-02-14T20:54:36.137Z,9.18
2019-02-14T20:59:38.204Z,9.20
2019-02-14T21:04:40.297Z,9.16
2019-02-14T21:09:42.354Z,9.08
2019-02-14T21:14:44.350Z,9.10
2019-02-14T21:19:46.436Z,9.06
2019-02-14T21:24:48.513Z,8.95
2019-02-14T21:29:50.665Z,8.97
2019-02-14T21:34:52.746Z,8.93
2019-02-14T21:39:54.826Z,8.92
2019-02-14T21:44:56.921Z,8.89
2019-02-14T21:49:59.057Z,8.85
2019-02-14T21:55:01.191Z,8.78
2019-02-14T22:00:04.661Z,8.77
2019-02-14T22:05:07.741Z,8.71
2019-02-14T22:10:10.353Z,8.69
2019-02-14T22:15:15.226Z,8.62
2019-02-14T22:20:17.433Z,8.61
2019-02-14T22:25:19.498Z,8.55
2019-02-14T22:30:21.573Z,8.47
2019-02-14T22:35:23.622Z,8.44
2019-02-14T22:40:25.746Z,8.38
2019-02-14T22:45:27.861Z,8.31
2019-02-14T22:50:29.945Z,8.28
2019-02-14T22:55:32.032Z,8.25
2019-02-14T23:00:38.085Z,8.15
2019-02-14T23:05:40.133Z,8.04
2019-02-14T23:10:42.215Z,8.01
2019-02-14T23:15:44.321Z,7.89
2019-02-14T23:20:48.776Z,7.80
2019-02-14T23:25:50.806Z,7.76
2019-02-14T23:30:52.857Z,7.72
2019-02-14T23:35:54.980Z,7.83
2019-02-14T23:40:57.045Z,7.82
2019-02-14T23:45:59.097Z,7.74
2019-02-14T23:51:01.163Z,7.69
2019-02-14T23:56:03.192Z,7.53
